Saturday, August 30, 2014, 12:26 AM EDT

KPTB, Petersburg, Dinwiddie County Airport

Location: Petersburg, VA, United States Lat: 37.183
Local Time: 12:26 AM EDT ( 4:26 GMT) Lon: -77.517
Time Zone: US/Eastern Elev: 193 ft

Show me the last for .
Show Decoded

2014-08-30 00:15 METAR KPTB 300415Z AUTO 00000KT 10SM SCT049 OVC060 22/15 A3021 RMK AO2 T02180154
                 =
2014-08-29 23:55 METAR KPTB 300355Z AUTO 00000KT 10SM SCT043 BKN050 OVC060 22/15 A3021 RMK AO2
                 T02220154 =
2014-08-29 23:35 METAR KPTB 300335Z AUTO 11003KT 10SM OVC041 23/16 A3021 RMK AO2 T02250158 =
2014-08-29 23:15 METAR KPTB 300315Z AUTO 11003KT 10SM BKN036 OVC043 23/16 A3021 RMK AO2 T02250160
                 =
2014-08-29 22:55 METAR KPTB 300255Z AUTO 11004KT 10SM SCT036 OVC045 23/16 A3020 RMK AO2 T02260160
                 =
2014-08-29 22:35 METAR KPTB 300235Z AUTO 12005KT 10SM SCT034 OVC045 23/16 A3020 RMK AO2 T02290161
                 =
2014-08-29 22:15 METAR KPTB 300215Z AUTO 12005KT 10SM BKN032 OVC045 23/16 A3020 RMK AO2 T02310162
                 =
2014-08-29 21:55 METAR KPTB 300155Z AUTO 00000KT 10SM OVC032 23/17 A3020 RMK AO2 T02310173 =
2014-08-29 21:35 METAR KPTB 300135Z AUTO 10004KT 10SM BKN034 OVC044 24/18 A3019 RMK AO2 T02350176
                 =
2014-08-29 21:15 METAR KPTB 300115Z AUTO 11005KT 10SM SCT034 OVC044 24/18 A3018 RMK AO2 T02370177
                 =
2014-08-29 20:55 METAR KPTB 300055Z AUTO 11003KT 10SM OVC042 24/18 A3017 RMK AO2 T02400180 =
2014-08-29 20:35 METAR KPTB 300035Z AUTO 11004KT 10SM SCT036 OVC042 24/18 A3016 RMK AO2 T02420180
                 =
2014-08-29 20:15 METAR KPTB 300015Z AUTO 11004KT 10SM SCT036 OVC044 24/18 A3015 RMK AO2 T02440183
                 =
2014-08-29 19:55 METAR KPTB 292355Z AUTO 13003KT 10SM OVC042 25/19 A3015 RMK AO2 T02450186 10286
                 20245 =
2014-08-29 19:35 METAR KPTB 292335Z AUTO 00000KT 10SM OVC042 25/19 A3014 RMK AO2 T02480185 =
2014-08-29 19:15 METAR KPTB 292315Z AUTO 11005KT 10SM OVC044 26/18 A3014 RMK AO2 T02550181 =
2014-08-29 18:55 METAR KPTB 292255Z AUTO 11003KT 10SM OVC046 26/18 A3014 RMK AO2 T02590184 =
2014-08-29 18:35 METAR KPTB 292235Z AUTO 00000KT 10SM OVC046 27/18 A3014 RMK AO2 T02650181 =
2014-08-29 18:15 METAR KPTB 292215Z AUTO 00000KT 10SM BKN046 27/18 A3013 RMK AO2 T02680177 =
2014-08-29 17:55 METAR KPTB 292155Z AUTO 00000KT 10SM SCT042 SCT048 27/18 A3013 RMK AO2 T02670177
                 =
2014-08-29 17:35 METAR KPTB 292135Z AUTO 11005KT 10SM BKN046 28/17 A3013 RMK AO2 T02800168 =
2014-08-29 17:15 METAR KPTB 292115Z AUTO 12003KT 10SM OVC046 28/17 A3013 RMK AO2 T02800166 =
2014-08-29 16:55 METAR KPTB 292055Z AUTO 12003KT 10SM OVC046 28/16 A3013 RMK AO2 T02810161 =
2014-08-29 16:35 METAR KPTB 292035Z AUTO 12003KT 10SM BKN046 28/16 A3013 RMK AO2 T02800161 =
2014-08-29 16:15 METAR KPTB 292015Z AUTO 00000KT 10SM SCT046 SCT060 28/16 A3013 RMK AO2 T02840156
                 =
2014-08-29 15:55 METAR KPTB 291955Z AUTO 00000KT 10SM SCT046 SCT060 28/16 A3013 RMK AO2 T02800155
                 =
2014-08-29 15:35 METAR KPTB 291935Z AUTO 06005KT 10SM SCT046 28/16 A3014 RMK AO2 T02820155 =
2014-08-29 15:15 METAR KPTB 291915Z AUTO 00000KT 10SM SCT046 28/15 A3014 RMK AO2 T02770147 =
2014-08-29 14:55 METAR KPTB 291855Z AUTO 00000KT 10SM SCT046 SCT055 28/15 A3015 RMK AO2 T02790151
                 =
2014-08-29 14:35 METAR KPTB 291835Z AUTO 09004KT 10SM SCT046 28/15 A3015 RMK AO2 T02800148 =
2014-08-29 14:15 METAR KPTB 291815Z AUTO 11003KT 10SM CLR 28/14 A3016 RMK AO2 T02750142 =
2014-08-29 13:55 METAR KPTB 291755Z AUTO 00000KT 10SM CLR 27/14 A3016 RMK AO2 T02730137 10273
                 20205 =
2014-08-29 13:35 METAR KPTB 291735Z AUTO 00000KT 10SM CLR 27/14 A3017 RMK AO2 T02710135 =
2014-08-29 13:15 METAR KPTB 291715Z AUTO 10003KT 10SM CLR 27/15 A3017 RMK AO2 T02710145 =
2014-08-29 12:55 METAR KPTB 291655Z AUTO 11006KT 10SM CLR 27/14 A3017 RMK AO2 T02680141 =
2014-08-29 12:35 METAR KPTB 291635Z AUTO 36005KT 10SM CLR 26/15 A3017 RMK AO2 T02610150 =
2014-08-29 12:15 METAR KPTB 291615Z AUTO 02006KT 10SM CLR 26/15 A3017 RMK AO2 T02630154 =
2014-08-29 11:55 METAR KPTB 291555Z AUTO 04006KT 10SM CLR 26/16 A3018 RMK AO2 T02580157 =
2014-08-29 11:35 METAR KPTB 291535Z AUTO 03008KT 10SM SCT055 25/15 A3018 RMK AO2 T02520154 =
2014-08-29 11:15 METAR KPTB 291515Z AUTO 04006KT 10SM OVC055 25/15 A3018 RMK AO2 T02480154 =
2014-08-29 10:55 METAR KPTB 291455Z AUTO 04007KT 10SM OVC055 24/15 A3018 RMK AO2 T02420152 =
2014-08-29 10:35 METAR KPTB 291435Z AUTO 05007KT 10SM BKN055 24/15 A3018 RMK AO2 T02430151 =
2014-08-29 10:15 METAR KPTB 291415Z AUTO 02007KT 10SM BKN055 24/15 A3018 RMK AO2 T02390153 =
2014-08-29 09:55 METAR KPTB 291355Z AUTO 04007KT 10SM SCT055 24/15 A3018 RMK AO2 T02360148 =
2014-08-29 09:35 METAR KPTB 291335Z AUTO 03010KT 10SM CLR 23/15 A3018 RMK AO2 T02300145 =
2014-08-29 09:15 METAR KPTB 291315Z AUTO 05007KT 10SM CLR 23/15 A3017 RMK AO2 T02250145 =
2014-08-29 08:55 METAR KPTB 291255Z AUTO 04006KT 10SM SCT025 SCT050 22/15 A3017 RMK AO2 T02180145
                 =
2014-08-29 08:35 METAR KPTB 291235Z AUTO 04008KT 10SM SCT050 22/15 A3016 RMK AO2 T02150148 =
2014-08-29 07:55 METAR KPTB 291155Z AUTO 02007KT 10SM OVC050 21/15 A3016 RMK AO2 T02050147 10235
                 20195 =
2014-08-29 07:35 METAR KPTB 291135Z AUTO 03004KT 10SM OVC050 20/15 A3015 RMK AO2 T02020146 =
2014-08-29 07:15 METAR KPTB 291115Z AUTO 03003KT 10SM OVC050 20/15 A3015 RMK AO2 T02000146 =
2014-08-29 06:55 METAR KPTB 291055Z AUTO 02004KT 10SM SCT050 20/15 A3014 RMK AO2 T01950145 =
2014-08-29 06:35 METAR KPTB 291035Z AUTO 02005KT 10SM BKN050 20/15 A3013 RMK AO2 T01950146 =
2014-08-29 06:15 METAR KPTB 291015Z AUTO 02005KT 10SM OVC050 20/15 A3012 RMK AO2 T01990146 =
2014-08-29 05:55 METAR KPTB 290955Z AUTO 02005KT 10SM OVC050 21/15 A3011 RMK AO2 T02050147 =
2014-08-29 05:35 METAR KPTB 290935Z AUTO 01005KT 10SM OVC050 20/15 A3011 RMK AO2 T02000149 =
2014-08-29 05:15 METAR KPTB 290915Z AUTO 02004KT 10SM SCT050 20/15 A3010 RMK AO2 T01970150 =
2014-08-29 04:55 METAR KPTB 290855Z AUTO 03005KT 10SM SCT060 20/15 A3009 RMK AO2 T02010150 =
2014-08-29 04:35 METAR KPTB 290835Z AUTO 03005KT 10SM BKN060 21/15 A3009 RMK AO2 T02060149 =
2014-08-29 04:15 METAR KPTB 290815Z AUTO 03006KT 10SM BKN060 21/15 A3009 RMK AO2 T02090148 =
2014-08-29 03:35 METAR KPTB 290735Z AUTO 02007KT 10SM SCT060 SCT070 21/15 A3009 RMK AO2 T02120148
                 =
2014-08-29 03:15 METAR KPTB 290715Z AUTO 02005KT 10SM BKN060 21/15 A3010 RMK AO2 T02130151 =
2014-08-29 02:55 METAR KPTB 290655Z AUTO 04006KT 10SM BKN060 22/15 A3009 RMK AO2 T02200151 =
2014-08-29 02:35 METAR KPTB 290635Z AUTO 03006KT 10SM OVC060 23/15 A3009 RMK AO2 LTG DSNT S
                 T02290151 =
2014-08-29 02:15 METAR KPTB 290615Z AUTO 02006KT 10SM OVC060 23/16 A3009 RMK AO2 T02330164 =
2014-08-29 01:55 METAR KPTB 290555Z AUTO 02004KT 10SM OVC070 24/17 A3009 RMK AO2 LTG DSNT S
                 T02350168 10267 20220 =
2014-08-29 01:35 METAR KPTB 290535Z AUTO 05006KT 10SM OVC070 24/17 A3008 RMK AO2 LTG DSNT SE AND
                 S T02350169 =
2014-08-29 01:15 METAR KPTB 290515Z AUTO 02004KT 10SM OVC070 23/18 A3008 RMK AO2 LTG DSNT S
                 T02290175 =
2014-08-29 00:55 METAR KPTB 290455Z AUTO 00000KT 10SM BKN060 OVC070 22/18 A3008 RMK AO2 LTG DSNT
                 SE AND S T02240183 403160173 =
2014-08-29 00:35 METAR KPTB 290435Z AUTO 00000KT 10SM OVC050 23/19 A3008 RMK AO2 T02260185 =

Support USWX by starting your Amazon purchase here.